sensor_id;sensor_type;location;lat;lon;timestamp;P1;durP1;ratioP1;P2;durP2;ratioP2
34571;SDS011;20808;48.974;8.452;2023-02-28T00:00:03;5.65;;;4.07;;
34571;SDS011;20808;48.974;8.452;2023-02-28T00:00:25;5.97;;;4.10;;
34571;SDS011;20808;48.974;8.452;2023-02-28T00:00:41;5.80;;;4.05;;
34571;SDS011;20808;48.974;8.452;2023-02-28T00:00:58;6.88;;;4.00;;
34571;SDS011;20808;48.974;8.452;2023-02-28T00:01:14;7.45;;;3.90;;
34571;SDS011;20808;48.974;8.452;2023-02-28T00:01:31;7.15;;;3.75;;
34571;SDS011;20808;48.974;8.452;2023-02-28T00:01:47;7.25;;;3.90;;
34571;SDS011;20808;48.974;8.452;2023-02-28T00:02:03;5.00;;;3.80;;
34571;SDS011;20808;48.974;8.452;2023-02-28T00:02:19;5.65;;;3.90;;
34571;SDS011;20808;48.974;8.452;2023-02-28T00:02:34;5.40;;;3.83;;
34571;SDS011;20808;48.974;8.452;2023-02-28T00:02:53;5.20;;;3.78;;
34571;SDS011;20808;48.974;8.452;2023-02-28T00:03:09;5.60;;;3.90;;
34571;SDS011;20808;48.974;8.452;2023-02-28T00:03:24;4.75;;;3.80;;
34571;SDS011;20808;48.974;8.452;2023-02-28T00:03:40;5.28;;;3.95;;
34571;SDS011;20808;48.974;8.452;2023-02-28T00:03:56;5.30;;;4.00;;
34571;SDS011;20808;48.974;8.452;2023-02-28T00:04:13;5.03;;;3.95;;
34571;SDS011;20808;48.974;8.452;2023-02-28T00:04:29;6.70;;;4.30;;
34571;SDS011;20808;48.974;8.452;2023-02-28T00:04:45;6.57;;;4.20;;
34571;SDS011;20808;48.974;8.452;2023-02-28T00:05:08;6.80;;;4.32;;
34571;SDS011;20808;48.974;8.452;2023-02-28T00:05:26;4.93;;;4.00;;
34571;SDS011;20808;48.974;8.452;2023-02-28T00:05:44;4.78;;;3.90;;
34571;SDS011;20808;48.974;8.452;2023-02-28T00:06:00;5.07;;;3.80;;
34571;SDS011;20808;48.974;8.452;2023-02-28T00:06:16;5.72;;;4.00;;
34571;SDS011;20808;48.974;8.452;2023-02-28T00:06:32;5.90;;;4.00;;
34571;SDS011;20808;48.974;8.452;2023-02-28T00:06:47;5.65;;;4.00;;
34571;SDS011;20808;48.974;8.452;2023-02-28T00:07:04;5.30;;;4.03;;
34571;SDS011;20808;48.974;8.452;2023-02-28T00:07:20;5.10;;;4.00;;
34571;SDS011;20808;48.974;8.452;2023-02-28T00:07:36;5.60;;;4.13;;
34571;SDS011;20808;48.974;8.452;2023-02-28T00:07:52;5.40;;;4.00;;
34571;SDS011;20808;48.974;8.452;2023-02-28T00:08:08;5.72;;;4.20;;
34571;SDS011;20808;48.974;8.452;2023-02-28T00:08:24;5.50;;;4.10;;
34571;SDS011;20808;48.974;8.452;2023-02-28T00:08:40;4.97;;;4.00;;
34571;SDS011;20808;48.974;8.452;2023-02-28T00:08:57;4.93;;;3.90;;
34571;SDS011;20808;48.974;8.452;2023-02-28T00:09:12;5.70;;;4.05;;
34571;SDS011;20808;48.974;8.452;2023-02-28T00:09:28;5.85;;;4.05;;
34571;SDS011;20808;48.974;8.452;2023-02-28T00:09:44;6.63;;;4.20;;
34571;SDS011;20808;48.974;8.452;2023-02-28T00:10:00;6.70;;;4.07;;
34571;SDS011;20808;48.974;8.452;2023-02-28T00:10:17;6.50;;;3.80;;
34571;SDS011;20808;48.974;8.452;2023-02-28T00:10:35;6.00;;;3.75;;
34571;SDS011;20808;48.974;8.452;2023-02-28T00:10:51;5.78;;;4.00;;
34571;SDS011;20808;48.974;8.452;2023-02-28T00:11:08;4.90;;;3.90;;
34571;SDS011;20808;48.974;8.452;2023-02-28T00:11:25;4.55;;;3.78;;
34571;SDS011;20808;48.974;8.452;2023-02-28T00:11:42;5.03;;;3.60;;
34571;SDS011;20808;48.974;8.452;2023-02-28T00:11:57;4.90;;;3.58;;
34571;SDS011;20808;48.974;8.452;2023-02-28T00:12:13;4.90;;;3.60;;
34571;SDS011;20808;48.974;8.452;2023-02-28T00:12:29;5.07;;;3.85;;
34571;SDS011;20808;48.974;8.452;2023-02-28T00:12:45;4.70;;;4.00;;
34571;SDS011;20808;48.974;8.452;2023-02-28T00:13:02;5.68;;;4.20;;
34571;SDS011;20808;48.974;8.452;2023-02-28T00:13:20;6.10;;;4.20;;
34571;SDS011;20808;48.974;8.452;2023-02-28T00:13:38;6.10;;;4.03;;
34571;SDS011;20808;48.974;8.452;2023-02-28T00:13:57;6.00;;;4.00;;
34571;SDS011;20808;48.974;8.452;2023-02-28T00:14:14;4.90;;;3.92;;
34571;SDS011;20808;48.974;8.452;2023-02-28T00:14:30;4.80;;;4.00;;
34571;SDS011;20808;48.974;8.452;2023-02-28T00:14:46;4.70;;;3.90;;
34571;SDS011;20808;48.974;8.452;2023-02-28T00:15:03;5.00;;;3.83;;
34571;SDS011;20808;48.974;8.452;2023-02-28T00:15:22;5.03;;;3.80;;
34571;SDS011;20808;48.974;8.452;2023-02-28T00:15:39;5.38;;;3.90;;
34571;SDS011;20808;48.974;8.452;2023-02-28T00:15:59;5.35;;;3.90;;
34571;SDS011;20808;48.974;8.452;2023-02-28T00:16:17;5.05;;;4.00;;
34571;SDS011;20808;48.974;8.452;2023-02-28T00:16:35;5.22;;;4.10;;
34571;SDS011;20808;48.974;8.452;2023-02-28T00:16:52;5.40;;;4.30;;
34571;SDS011;20808;48.974;8.452;2023-02-28T00:17:08;5.40;;;4.22;;
34571;SDS011;20808;48.974;8.452;2023-02-28T00:17:24;5.28;;;4.20;;
34571;SDS011;20808;48.974;8.452;2023-02-28T00:17:40;4.80;;;4.05;;
34571;SDS011;20808;48.974;8.452;2023-02-28T00:17:57;4.88;;;3.90;;
34571;SDS011;20808;48.974;8.452;2023-02-28T00:18:13;5.03;;;4.00;;
34571;SDS011;20808;48.974;8.452;2023-02-28T00:18:30;5.70;;;4.20;;
34571;SDS011;20808;48.974;8.452;2023-02-28T00:18:47;5.93;;;4.20;;
34571;SDS011;20808;48.974;8.452;2023-02-28T00:19:03;6.00;;;4.20;;
34571;SDS011;20808;48.974;8.452;2023-02-28T00:19:19;6.03;;;4.20;;
34571;SDS011;20808;48.974;8.452;2023-02-28T00:19:36;5.70;;;4.00;;
34571;SDS011;20808;48.974;8.452;2023-02-28T00:19:52;5.65;;;4.03;;
34571;SDS011;20808;48.974;8.452;2023-02-28T00:20:10;5.93;;;4.00;;
34571;SDS011;20808;48.974;8.452;2023-02-28T00:20:27;6.28;;;4.03;;
34571;SDS011;20808;48.974;8.452;2023-02-28T00:20:43;6.03;;;3.88;;
34571;SDS011;20808;48.974;8.452;2023-02-28T00:21:00;5.72;;;3.90;;
34571;SDS011;20808;48.974;8.452;2023-02-28T00:21:17;6.78;;;3.90;;
34571;SDS011;20808;48.974;8.452;2023-02-28T00:21:35;6.60;;;3.85;;
34571;SDS011;20808;48.974;8.452;2023-02-28T00:21:51;7.00;;;3.97;;
34571;SDS011;20808;48.974;8.452;2023-02-28T00:22:07;6.30;;;3.95;;
34571;SDS011;20808;48.974;8.452;2023-02-28T00:22:23;5.07;;;3.88;;
34571;SDS011;20808;48.974;8.452;2023-02-28T00:22:40;5.05;;;4.00;;
34571;SDS011;20808;48.974;8.452;2023-02-28T00:22:57;5.10;;;3.92;;
34571;SDS011;20808;48.974;8.452;2023-02-28T00:23:15;5.80;;;4.20;;
34571;SDS011;20808;48.974;8.452;2023-02-28T00:23:31;5.97;;;4.15;;
34571;SDS011;20808;48.974;8.452;2023-02-28T00:23:47;5.60;;;4.10;;
34571;SDS011;20808;48.974;8.452;2023-02-28T00:24:03;5.25;;;4.00;;
34571;SDS011;20808;48.974;8.452;2023-02-28T00:24:20;5.00;;;4.00;;
34571;SDS011;20808;48.974;8.452;2023-02-28T00:24:36;5.65;;;4.20;;
34571;SDS011;20808;48.974;8.452;2023-02-28T00:24:53;6.10;;;4.13;;
34571;SDS011;20808;48.974;8.452;2023-02-28T00:25:10;6.15;;;4.20;;
34571;SDS011;20808;48.974;8.452;2023-02-28T00:25:27;7.15;;;4.28;;
34571;SDS011;20808;48.974;8.452;2023-02-28T00:25:43;6.40;;;4.10;;
34571;SDS011;20808;48.974;8.452;2023-02-28T00:25:59;6.57;;;4.30;;
34571;SDS011;20808;48.974;8.452;2023-02-28T00:26:16;6.53;;;4.15;;
34571;SDS011;20808;48.974;8.452;2023-02-28T00:26:33;5.80;;;4.20;;
34571;SDS011;20808;48.974;8.452;2023-02-28T00:26:49;5.65;;;4.10;;
34571;SDS011;20808;48.974;8.452;2023-02-28T00:27:05;4.95;;;3.90;;
34571;SDS011;20808;48.974;8.452;2023-02-28T00:27:21;4.55;;;3.83;;
34571;SDS011;20808;48.974;8.452;2023-02-28T00:27:37;4.72;;;3.90;;
34571;SDS011;20808;48.974;8.452;2023-02-28T00:27:54;5.03;;;4.10;;
34571;SDS011;20808;48.974;8.452;2023-02-28T00:28:10;5.68;;;4.20;;
34571;SDS011;20808;48.974;8.452;2023-02-28T00:28:26;6.00;;;4.22;;
34571;SDS011;20808;48.974;8.452;2023-02-28T00:28:42;6.20;;;4.30;;
34571;SDS011;20808;48.974;8.452;2023-02-28T00:28:59;5.75;;;4.35;;
34571;SDS011;20808;48.974;8.452;2023-02-28T00:29:14;5.30;;;4.22;;
34571;SDS011;20808;48.974;8.452;2023-02-28T00:29:30;5.83;;;4.23;;
34571;SDS011;20808;48.974;8.452;2023-02-28T00:29:46;5.82;;;4.20;;
34571;SDS011;20808;48.974;8.452;2023-02-28T00:30:02;6.25;;;4.20;;
34571;SDS011;20808;48.974;8.452;2023-02-28T00:30:19;6.55;;;4.20;;
34571;SDS011;20808;48.974;8.452;2023-02-28T00:30:37;5.45;;;4.00;;
34571;SDS011;20808;48.974;8.452;2023-02-28T00:30:53;5.28;;;4.00;;
34571;SDS011;20808;48.974;8.452;2023-02-28T00:31:08;4.93;;;4.10;;
34571;SDS011;20808;48.974;8.452;2023-02-28T00:31:24;4.97;;;4.30;;
34571;SDS011;20808;48.974;8.452;2023-02-28T00:31:40;4.97;;;4.40;;
34571;SDS011;20808;48.974;8.452;2023-02-28T00:31:57;5.20;;;4.30;;
34571;SDS011;20808;48.974;8.452;2023-02-28T00:32:13;4.82;;;4.10;;
34571;SDS011;20808;48.974;8.452;2023-02-28T00:32:28;4.75;;;4.00;;
34571;SDS011;20808;48.974;8.452;2023-02-28T00:32:44;4.60;;;3.88;;
34571;SDS011;20808;48.974;8.452;2023-02-28T00:33:02;4.53;;;3.90;;
34571;SDS011;20808;48.974;8.452;2023-02-28T00:33:19;4.88;;;3.97;;
34571;SDS011;20808;48.974;8.452;2023-02-28T00:33:35;4.93;;;4.00;;
34571;SDS011;20808;48.974;8.452;2023-02-28T00:33:50;5.60;;;4.00;;
34571;SDS011;20808;48.974;8.452;2023-02-28T00:34:06;6.00;;;4.00;;
34571;SDS011;20808;48.974;8.452;2023-02-28T00:34:22;5.60;;;3.80;;
34571;SDS011;20808;48.974;8.452;2023-02-28T00:34:39;5.63;;;3.90;;
34571;SDS011;20808;48.974;8.452;2023-02-28T00:34:55;4.90;;;3.90;;
34571;SDS011;20808;48.974;8.452;2023-02-28T00:35:11;5.60;;;4.05;;
34571;SDS011;20808;48.974;8.452;2023-02-28T00:35:28;6.55;;;4.18;;
34571;SDS011;20808;48.974;8.452;2023-02-28T00:35:43;6.53;;;3.90;;
34571;SDS011;20808;48.974;8.452;2023-02-28T00:36:02;7.30;;;4.10;;
34571;SDS011;20808;48.974;8.452;2023-02-28T00:36:19;6.95;;;4.10;;
34571;SDS011;20808;48.974;8.452;2023-02-28T00:36:35;7.07;;;4.53;;
34571;SDS011;20808;48.974;8.452;2023-02-28T00:36:51;7.40;;;4.60;;
34571;SDS011;20808;48.974;8.452;2023-02-28T00:37:08;7.07;;;4.60;;
34571;SDS011;20808;48.974;8.452;2023-02-28T00:37:27;6.05;;;4.40;;
34571;SDS011;20808;48.974;8.452;2023-02-28T00:37:43;5.13;;;4.20;;
34571;SDS011;20808;48.974;8.452;2023-02-28T00:38:00;5.03;;;4.10;;
34571;SDS011;20808;48.974;8.452;2023-02-28T00:38:16;5.10;;;4.03;;
34571;SDS011;20808;48.974;8.452;2023-02-28T00:38:32;5.37;;;4.00;;
34571;SDS011;20808;48.974;8.452;2023-02-28T00:38:48;5.53;;;4.10;;
34571;SDS011;20808;48.974;8.452;2023-02-28T00:39:04;5.28;;;4.10;;
34571;SDS011;20808;48.974;8.452;2023-02-28T00:39:21;5.88;;;4.35;;
34571;SDS011;20808;48.974;8.452;2023-02-28T00:39:37;6.10;;;4.25;;
34571;SDS011;20808;48.974;8.452;2023-02-28T00:39:53;6.40;;;4.22;;
34571;SDS011;20808;48.974;8.452;2023-02-28T00:40:09;6.63;;;4.20;;
34571;SDS011;20808;48.974;8.452;2023-02-28T00:40:27;6.30;;;4.10;;
34571;SDS011;20808;48.974;8.452;2023-02-28T00:40:42;6.00;;;4.10;;
34571;SDS011;20808;48.974;8.452;2023-02-28T00:40:59;5.72;;;4.10;;
34571;SDS011;20808;48.974;8.452;2023-02-28T00:41:19;5.25;;;4.00;;
34571;SDS011;20808;48.974;8.452;2023-02-28T00:41:35;5.20;;;4.10;;
34571;SDS011;20808;48.974;8.452;2023-02-28T00:41:51;5.47;;;4.10;;
34571;SDS011;20808;48.974;8.452;2023-02-28T00:42:08;6.00;;;4.15;;
34571;SDS011;20808;48.974;8.452;2023-02-28T00:42:24;6.50;;;4.15;;
34571;SDS011;20808;48.974;8.452;2023-02-28T00:42:41;6.43;;;4.15;;
34571;SDS011;20808;48.974;8.452;2023-02-28T00:42:57;6.15;;;4.20;;
34571;SDS011;20808;48.974;8.452;2023-02-28T00:43:13;5.55;;;4.07;;
34571;SDS011;20808;48.974;8.452;2023-02-28T00:43:30;5.47;;;3.90;;
34571;SDS011;20808;48.974;8.452;2023-02-28T00:43:47;5.75;;;3.90;;
34571;SDS011;20808;48.974;8.452;2023-02-28T00:44:04;6.07;;;4.00;;
34571;SDS011;20808;48.974;8.452;2023-02-28T00:44:21;5.90;;;3.92;;
34571;SDS011;20808;48.974;8.452;2023-02-28T00:44:37;5.80;;;4.10;;
34571;SDS011;20808;48.974;8.452;2023-02-28T00:44:52;5.45;;;4.13;;
34571;SDS011;20808;48.974;8.452;2023-02-28T00:45:09;4.95;;;4.00;;
34571;SDS011;20808;48.974;8.452;2023-02-28T00:45:25;5.07;;;4.00;;
34571;SDS011;20808;48.974;8.452;2023-02-28T00:45:42;5.13;;;4.10;;
34571;SDS011;20808;48.974;8.452;2023-02-28T00:45:58;5.38;;;4.15;;
34571;SDS011;20808;48.974;8.452;2023-02-28T00:46:14;4.70;;;4.00;;
34571;SDS011;20808;48.974;8.452;2023-02-28T00:46:30;5.25;;;4.10;;
34571;SDS011;20808;48.974;8.452;2023-02-28T00:46:45;5.45;;;4.10;;
34571;SDS011;20808;48.974;8.452;2023-02-28T00:47:01;5.18;;;4.00;;
34571;SDS011;20808;48.974;8.452;2023-02-28T00:47:18;6.07;;;4.10;;
34571;SDS011;20808;48.974;8.452;2023-02-28T00:47:34;6.10;;;4.18;;
34571;SDS011;20808;48.974;8.452;2023-02-28T00:47:49;6.18;;;3.97;;
34571;SDS011;20808;48.974;8.452;2023-02-28T00:48:07;7.50;;;4.20;;
34571;SDS011;20808;48.974;8.452;2023-02-28T00:48:22;7.00;;;4.20;;
34571;SDS011;20808;48.974;8.452;2023-02-28T00:48:38;6.90;;;4.07;;
34571;SDS011;20808;48.974;8.452;2023-02-28T00:48:55;6.82;;;4.20;;
34571;SDS011;20808;48.974;8.452;2023-02-28T00:49:11;5.93;;;3.90;;
34571;SDS011;20808;48.974;8.452;2023-02-28T00:49:27;5.80;;;3.80;;
34571;SDS011;20808;48.974;8.452;2023-02-28T00:49:42;6.05;;;4.10;;
34571;SDS011;20808;48.974;8.452;2023-02-28T00:49:59;6.45;;;4.25;;
34571;SDS011;20808;48.974;8.452;2023-02-28T00:50:15;7.35;;;4.40;;
34571;SDS011;20808;48.974;8.452;2023-02-28T00:50:32;7.25;;;4.45;;
34571;SDS011;20808;48.974;8.452;2023-02-28T00:50:48;7.13;;;4.45;;
34571;SDS011;20808;48.974;8.452;2023-02-28T00:51:05;6.38;;;4.30;;
34571;SDS011;20808;48.974;8.452;2023-02-28T00:51:20;6.15;;;4.35;;
34571;SDS011;20808;48.974;8.452;2023-02-28T00:51:37;6.47;;;4.30;;
34571;SDS011;20808;48.974;8.452;2023-02-28T00:51:53;5.97;;;4.20;;
34571;SDS011;20808;48.974;8.452;2023-02-28T00:52:10;5.95;;;4.20;;
34571;SDS011;20808;48.974;8.452;2023-02-28T00:52:26;5.78;;;4.15;;
34571;SDS011;20808;48.974;8.452;2023-02-28T00:52:42;5.78;;;4.18;;
34571;SDS011;20808;48.974;8.452;2023-02-28T00:52:59;6.18;;;4.30;;
34571;SDS011;20808;48.974;8.452;2023-02-28T00:53:15;5.50;;;4.20;;
34571;SDS011;20808;48.974;8.452;2023-02-28T00:53:31;6.20;;;4.10;;
34571;SDS011;20808;48.974;8.452;2023-02-28T00:53:47;5.65;;;4.07;;
34571;SDS011;20808;48.974;8.452;2023-02-28T00:54:04;5.70;;;3.90;;
34571;SDS011;20808;48.974;8.452;2023-02-28T00:54:20;6.10;;;4.00;;
34571;SDS011;20808;48.974;8.452;2023-02-28T00:54:37;5.32;;;3.97;;
34571;SDS011;20808;48.974;8.452;2023-02-28T00:54:53;5.82;;;4.00;;
34571;SDS011;20808;48.974;8.452;2023-02-28T00:55:09;5.70;;;4.00;;
34571;SDS011;20808;48.974;8.452;2023-02-28T00:55:25;6.13;;;4.10;;
34571;SDS011;20808;48.974;8.452;2023-02-28T00:55:41;6.25;;;4.10;;
34571;SDS011;20808;48.974;8.452;2023-02-28T00:55:59;6.40;;;4.30;;
34571;SDS011;20808;48.974;8.452;2023-02-28T00:56:15;5.88;;;4.32;;
34571;SDS011;20808;48.974;8.452;2023-02-28T00:56:31;5.90;;;4.30;;
34571;SDS011;20808;48.974;8.452;2023-02-28T00:56:48;5.32;;;4.22;;
34571;SDS011;20808;48.974;8.452;2023-02-28T00:57:05;5.20;;;4.20;;
34571;SDS011;20808;48.974;8.452;2023-02-28T00:57:21;6.15;;;3.95;;
34571;SDS011;20808;48.974;8.452;2023-02-28T00:57:38;6.43;;;4.00;;
34571;SDS011;20808;48.974;8.452;2023-02-28T00:57:54;6.57;;;3.90;;
34571;SDS011;20808;48.974;8.452;2023-02-28T00:58:10;6.57;;;3.92;;
34571;SDS011;20808;48.974;8.452;2023-02-28T00:58:27;5.50;;;4.10;;
34571;SDS011;20808;48.974;8.452;2023-02-28T00:58:43;5.88;;;4.10;;
34571;SDS011;20808;48.974;8.452;2023-02-28T00:59:00;5.95;;;4.20;;
34571;SDS011;20808;48.974;8.452;2023-02-28T00:59:16;6.68;;;4.40;;
34571;SDS011;20808;48.974;8.452;2023-02-28T00:59:32;6.13;;;4.00;;
34571;SDS011;20808;48.974;8.452;2023-02-28T00:59:49;5.80;;;4.03;;
34571;SDS011;20808;48.974;8.452;2023-02-28T01:00:06;5.72;;;3.70;;
34571;SDS011;20808;48.974;8.452;2023-02-28T01:00:23;6.05;;;3.83;;
34571;SDS011;20808;48.974;8.452;2023-02-28T01:00:39;6.45;;;4.00;;
34571;SDS011;20808;48.974;8.452;2023-02-28T01:00:55;6.20;;;4.10;;
34571;SDS011;20808;48.974;8.452;2023-02-28T01:01:13;6.00;;;4.10;;
34571;SDS011;20808;48.974;8.452;2023-02-28T01:01:29;5.13;;;4.00;;
34571;SDS011;20808;48.974;8.452;2023-02-28T01:01:45;5.50;;;4.07;;
34571;SDS011;20808;48.974;8.452;2023-02-28T01:02:01;5.22;;;4.05;;
34571;SDS011;20808;48.974;8.452;2023-02-28T01:02:18;5.25;;;4.20;;
34571;SDS011;20808;48.974;8.452;2023-02-28T01:02:35;5.47;;;4.15;;
34571;SDS011;20808;48.974;8.452;2023-02-28T01:02:51;5.45;;;4.00;;
34571;SDS011;20808;48.974;8.452;2023-02-28T01:03:08;6.15;;;4.05;;
34571;SDS011;20808;48.974;8.452;2023-02-28T01:03:24;5.93;;;4.00;;
34571;SDS011;20808;48.974;8.452;2023-02-28T01:03:41;5.40;;;4.13;;
34571;SDS011;20808;48.974;8.452;2023-02-28T01:03:57;5.70;;;4.20;;
34571;SDS011;20808;48.974;8.452;2023-02-28T01:04:14;5.53;;;4.20;;
34571;SDS011;20808;48.974;8.452;2023-02-28T01:04:34;6.22;;;4.20;;
34571;SDS011;20808;48.974;8.452;2023-02-28T01:04:50;5.80;;;4.20;;
34571;SDS011;20808;48.974;8.452;2023-02-28T01:05:07;6.25;;;4.20;;
34571;SDS011;20808;48.974;8.452;2023-02-28T01:05:23;6.82;;;4.00;;
34571;SDS011;20808;48.974;8.452;2023-02-28T01:05:40;6.90;;;4.10;;
34571;SDS011;20808;48.974;8.452;2023-02-28T01:05:57;7.20;;;4.00;;
34571;SDS011;20808;48.974;8.452;2023-02-28T01:06:13;6.00;;;4.20;;
34571;SDS011;20808;48.974;8.452;2023-02-28T01:06:29;6.32;;;4.20;;
34571;SDS011;20808;48.974;8.452;2023-02-28T01:06:45;6.90;;;4.28;;
34571;SDS011;20808;48.974;8.452;2023-02-28T01:07:01;6.85;;;4.30;;
34571;SDS011;20808;48.974;8.452;2023-02-28T01:07:18;7.45;;;4.40;;
34571;SDS011;20808;48.974;8.452;2023-02-28T01:07:34;7.53;;;4.60;;
34571;SDS011;20808;48.974;8.452;2023-02-28T01:07:50;6.65;;;4.50;;
34571;SDS011;20808;48.974;8.452;2023-02-28T01:08:06;7.15;;;4.50;;
34571;SDS011;20808;48.974;8.452;2023-02-28T01:08:22;6.50;;;3.95;;
34571;SDS011;20808;48.974;8.452;2023-02-28T01:08:41;7.22;;;4.20;;
34571;SDS011;20808;48.974;8.452;2023-02-28T01:08:57;7.28;;;4.30;;
34571;SDS011;20808;48.974;8.452;2023-02-28T01:09:13;6.68;;;4.43;;
34571;SDS011;20808;48.974;8.452;2023-02-28T01:09:29;6.13;;;4.60;;
34571;SDS011;20808;48.974;8.452;2023-02-28T01:09:46;5.80;;;4.40;;
34571;SDS011;20808;48.974;8.452;2023-02-28T01:10:03;5.32;;;4.30;;
34571;SDS011;20808;48.974;8.452;2023-02-28T01:10:20;5.30;;;4.30;;
34571;SDS011;20808;48.974;8.452;2023-02-28T01:10:36;5.38;;;4.07;;
34571;SDS011;20808;48.974;8.452;2023-02-28T01:10:52;5.40;;;4.00;;
34571;SDS011;20808;48.974;8.452;2023-02-28T01:11:09;5.43;;;3.95;;
34571;SDS011;20808;48.974;8.452;2023-02-28T01:11:28;5.50;;;4.00;;
34571;SDS011;20808;48.974;8.452;2023-02-28T01:11:44;5.70;;;4.13;;
34571;SDS011;20808;48.974;8.452;2023-02-28T01:12:00;5.45;;;4.05;;
34571;SDS011;20808;48.974;8.452;2023-02-28T01:12:16;5.50;;;3.97;;
34571;SDS011;20808;48.974;8.452;2023-02-28T01:12:32;5.43;;;3.80;;
34571;SDS011;20808;48.974;8.452;2023-02-28T01:12:48;6.00;;;3.80;;
34571;SDS011;20808;48.974;8.452;2023-02-28T01:13:05;5.90;;;3.80;;
34571;SDS011;20808;48.974;8.452;2023-02-28T01:13:22;6.10;;;3.90;;
34571;SDS011;20808;48.974;8.452;2023-02-28T01:13:38;5.75;;;4.00;;
34571;SDS011;20808;48.974;8.452;2023-02-28T01:13:54;6.43;;;4.10;;
34571;SDS011;20808;48.974;8.452;2023-02-28T01:14:11;5.90;;;4.05;;
34571;SDS011;20808;48.974;8.452;2023-02-28T01:14:33;6.00;;;4.00;;
34571;SDS011;20808;48.974;8.452;2023-02-28T01:14:50;5.25;;;3.80;;
34571;SDS011;20808;48.974;8.452;2023-02-28T01:15:06;5.32;;;3.80;;
34571;SDS011;20808;48.974;8.452;2023-02-28T01:15:25;6.20;;;3.80;;
34571;SDS011;20808;48.974;8.452;2023-02-28T01:15:41;6.32;;;3.88;;
34571;SDS011;20808;48.974;8.452;2023-02-28T01:16:00;6.90;;;4.10;;
34571;SDS011;20808;48.974;8.452;2023-02-28T01:16:17;6.07;;;4.10;;
34571;SDS011;20808;48.974;8.452;2023-02-28T01:16:34;6.50;;;4.20;;
34571;SDS011;20808;48.974;8.452;2023-02-28T01:16:50;6.55;;;4.30;;
34571;SDS011;20808;48.974;8.452;2023-02-28T01:17:06;6.60;;;4.40;;
34571;SDS011;20808;48.974;8.452;2023-02-28T01:17:23;6.32;;;4.45;;
34571;SDS011;20808;48.974;8.452;2023-02-28T01:17:41;4.93;;;4.32;;
34571;SDS011;20808;48.974;8.452;2023-02-28T01:17:57;4.82;;;4.20;;
34571;SDS011;20808;48.974;8.452;2023-02-28T01:18:14;6.45;;;4.30;;
34571;SDS011;20808;48.974;8.452;2023-02-28T01:18:30;6.30;;;4.20;;
34571;SDS011;20808;48.974;8.452;2023-02-28T01:18:46;6.38;;;4.10;;
34571;SDS011;20808;48.974;8.452;2023-02-28T01:19:03;5.82;;;4.10;;
34571;SDS011;20808;48.974;8.452;2023-02-28T01:19:18;5.55;;;4.10;;
34571;SDS011;20808;48.974;8.452;2023-02-28T01:19:34;6.00;;;4.20;;
34571;SDS011;20808;48.974;8.452;2023-02-28T01:19:52;5.88;;;4.20;;
34571;SDS011;20808;48.974;8.452;2023-02-28T01:20:09;5.38;;;4.00;;
34571;SDS011;20808;48.974;8.452;2023-02-28T01:20:26;5.13;;;4.10;;
34571;SDS011;20808;48.974;8.452;2023-02-28T01:20:42;4.95;;;4.10;;
34571;SDS011;20808;48.974;8.452;2023-02-28T01:21:02;4.88;;;4.18;;
34571;SDS011;20808;48.974;8.452;2023-02-28T01:21:19;5.00;;;4.20;;
34571;SDS011;20808;48.974;8.452;2023-02-28T01:21:36;5.13;;;4.20;;
34571;SDS011;20808;48.974;8.452;2023-02-28T01:21:51;5.90;;;4.30;;
34571;SDS011;20808;48.974;8.452;2023-02-28T01:22:08;5.95;;;4.10;;
34571;SDS011;20808;48.974;8.452;2023-02-28T01:22:24;5.78;;;4.10;;
34571;SDS011;20808;48.974;8.452;2023-02-28T01:22:40;6.30;;;4.10;;
34571;SDS011;20808;48.974;8.452;2023-02-28T01:22:56;6.37;;;4.27;;
34571;SDS011;20808;48.974;8.452;2023-02-28T01:23:11;6.30;;;4.20;;
34571;SDS011;20808;48.974;8.452;2023-02-28T01:23:28;5.80;;;4.10;;
34571;SDS011;20808;48.974;8.452;2023-02-28T01:23:44;5.45;;;3.80;;
34571;SDS011;20808;48.974;8.452;2023-02-28T01:24:00;5.45;;;3.80;;
34571;SDS011;20808;48.974;8.452;2023-02-28T01:24:17;5.93;;;4.05;;
34571;SDS011;20808;48.974;8.452;2023-02-28T01:24:33;6.93;;;4.43;;
34571;SDS011;20808;48.974;8.452;2023-02-28T01:24:49;6.82;;;4.60;;
34571;SDS011;20808;48.974;8.452;2023-02-28T01:25:06;7.03;;;4.50;;
34571;SDS011;20808;48.974;8.452;2023-02-28T01:25:22;6.47;;;4.57;;
34571;SDS011;20808;48.974;8.452;2023-02-28T01:25:38;5.57;;;4.30;;
34571;SDS011;20808;48.974;8.452;2023-02-28T01:25:54;5.47;;;4.20;;
34571;SDS011;20808;48.974;8.452;2023-02-28T01:26:10;5.80;;;4.20;;
34571;SDS011;20808;48.974;8.452;2023-02-28T01:26:28;6.72;;;4.25;;
34571;SDS011;20808;48.974;8.452;2023-02-28T01:26:44;6.88;;;4.10;;
34571;SDS011;20808;48.974;8.452;2023-02-28T01:27:00;5.80;;;4.07;;
34571;SDS011;20808;48.974;8.452;2023-02-28T01:27:16;5.97;;;4.10;;
34571;SDS011;20808;48.974;8.452;2023-02-28T01:27:33;5.67;;;4.10;;
34571;SDS011;20808;48.974;8.452;2023-02-28T01:27:50;5.35;;;4.20;;
34571;SDS011;20808;48.974;8.452;2023-02-28T01:28:07;5.38;;;4.20;;
34571;SDS011;20808;48.974;8.452;2023-02-28T01:28:22;4.70;;;3.90;;
34571;SDS011;20808;48.974;8.452;2023-02-28T01:28:38;4.57;;;3.80;;
34571;SDS011;20808;48.974;8.452;2023-02-28T01:28:54;4.45;;;3.70;;
34571;SDS011;20808;48.974;8.452;2023-02-28T01:29:10;4.70;;;3.70;;
34571;SDS011;20808;48.974;8.452;2023-02-28T01:29:27;5.78;;;3.90;;
34571;SDS011;20808;48.974;8.452;2023-02-28T01:29:43;6.85;;;4.25;;
34571;SDS011;20808;48.974;8.452;2023-02-28T01:29:59;7.20;;;4.35;;
34571;SDS011;20808;48.974;8.452;2023-02-28T01:30:14;7.90;;;4.50;;
34571;SDS011;20808;48.974;8.452;2023-02-28T01:30:30;6.60;;;4.28;;
34571;SDS011;20808;48.974;8.452;2023-02-28T01:30:47;5.72;;;4.10;;
34571;SDS011;20808;48.974;8.452;2023-02-28T01:31:04;5.13;;;4.10;;
34571;SDS011;20808;48.974;8.452;2023-02-28T01:31:21;5.40;;;4.20;;
34571;SDS011;20808;48.974;8.452;2023-02-28T01:31:37;5.28;;;4.13;;
34571;SDS011;20808;48.974;8.452;2023-02-28T01:31:53;5.53;;;4.13;;
34571;SDS011;20808;48.974;8.452;2023-02-28T01:32:10;6.50;;;4.20;;
34571;SDS011;20808;48.974;8.452;2023-02-28T01:32:25;6.13;;;4.20;;
34571;SDS011;20808;48.974;8.452;2023-02-28T01:32:41;6.60;;;4.23;;
34571;SDS011;20808;48.974;8.452;2023-02-28T01:32:57;6.32;;;4.30;;
34571;SDS011;20808;48.974;8.452;2023-02-28T01:33:14;6.07;;;4.40;;
34571;SDS011;20808;48.974;8.452;2023-02-28T01:33:30;6.07;;;4.43;;
34571;SDS011;20808;48.974;8.452;2023-02-28T01:33:48;5.85;;;4.45;;
34571;SDS011;20808;48.974;8.452;2023-02-28T01:34:04;5.50;;;4.30;;
34571;SDS011;20808;48.974;8.452;2023-02-28T01:34:19;5.90;;;4.43;;
34571;SDS011;20808;48.974;8.452;2023-02-28T01:34:35;5.85;;;4.60;;
34571;SDS011;20808;48.974;8.452;2023-02-28T01:34:51;5.60;;;4.50;;
34571;SDS011;20808;48.974;8.452;2023-02-28T01:35:07;5.57;;;4.35;;
34571;SDS011;20808;48.974;8.452;2023-02-28T01:35:23;6.90;;;4.32;;
34571;SDS011;20808;48.974;8.452;2023-02-28T01:35:40;7.47;;;4.40;;
34571;SDS011;20808;48.974;8.452;2023-02-28T01:35:59;7.95;;;4.25;;
34571;SDS011;20808;48.974;8.452;2023-02-28T01:36:16;7.13;;;4.30;;
34571;SDS011;20808;48.974;8.452;2023-02-28T01:36:33;7.10;;;4.20;;
34571;SDS011;20808;48.974;8.452;2023-02-28T01:36:49;6.05;;;4.10;;
34571;SDS011;20808;48.974;8.452;2023-02-28T01:37:06;6.10;;;4.10;;
34571;SDS011;20808;48.974;8.452;2023-02-28T01:37:21;5.85;;;4.00;;
34571;SDS011;20808;48.974;8.452;2023-02-28T01:37:37;5.40;;;3.93;;
34571;SDS011;20808;48.974;8.452;2023-02-28T01:37:53;5.72;;;4.05;;
34571;SDS011;20808;48.974;8.452;2023-02-28T01:38:09;5.68;;;4.20;;
34571;SDS011;20808;48.974;8.452;2023-02-28T01:38:25;5.53;;;4.10;;
34571;SDS011;20808;48.974;8.452;2023-02-28T01:38:42;5.60;;;3.90;;
34571;SDS011;20808;48.974;8.452;2023-02-28T01:38:58;6.45;;;3.90;;
34571;SDS011;20808;48.974;8.452;2023-02-28T01:39:14;6.57;;;4.00;;
34571;SDS011;20808;48.974;8.452;2023-02-28T01:39:30;6.93;;;4.20;;